Time;durP1;ratioP1;P1;durP2;ratioP2;P2;SDS_P1;SDS_P2;PMS_P1;PMS_P2;Temp;Humidity;BMP_temperature;BMP_pressure;BME280_temperature;BME280_humidity;BME280_pressure;Samples;Min_cycle;Max_cycle;Signal;HPM_P1;HPM_P2
2023/04/21 00:00:22;;;;;;;10.47;4.07;;;;;;;8.72;73.75;102061.09;6160238;28;20237;-76
2023/04/21 00:03:43;;;;;;;7.30;5.63;;;;;;;8.70;74.01;102056.94;6154469;28;20238;-75
2023/04/21 00:07:05;;;;;;;6.40;5.13;;;;;;;8.67;73.83;102051.91;6138483;28;20242;-79
2023/04/21 00:10:26;;;;;;;12.73;5.17;;;;;;;8.70;73.44;102057.75;6163854;28;20230;-77
2023/04/21 00:13:46;;;;;;;5.53;4.90;;;;;;;8.65;73.26;102053.81;6156167;28;20233;-76
2023/04/21 00:17:07;;;;;;;5.87;4.87;;;;;;;8.58;74.28;102050.88;6149047;28;20679;-76
2023/04/21 00:20:28;;;;;;;6.53;5.67;;;;;;;8.56;73.65;102051.00;6167447;28;20651;-78
2023/04/21 00:23:51;;;;;;;4.47;4.07;;;;;;;8.58;73.72;102049.06;6158667;28;20221;-76
2023/04/21 00:27:14;;;;;;;6.27;4.63;;;;;;;8.64;73.30;102039.84;6156697;28;20234;-77
2023/04/21 00:30:35;;;;;;;5.97;4.70;;;;;;;8.60;74.13;102043.69;6155821;28;20238;-78
2023/04/21 00:33:58;;;;;;;5.13;4.63;;;;;;;8.55;74.03;102044.06;6163500;28;20233;-78
2023/04/21 00:37:20;;;;;;;5.53;5.03;;;;;;;8.58;74.12;102035.09;6148681;28;20230;-78
2023/04/21 00:40:42;;;;;;;5.03;4.23;;;;;;;8.55;73.72;102036.19;6145898;28;20231;-76
2023/04/21 00:44:09;;;;;;;9.27;5.93;;;;;;;8.55;73.63;102036.19;6143232;28;20599;-76
2023/04/21 00:47:34;;;;;;;7.57;5.50;;;;;;;8.57;73.71;102031.63;6163013;28;20235;-75
2023/04/21 00:50:55;;;;;;;7.27;4.63;;;;;;;8.60;73.83;102027.03;6147096;28;20234;-78
2023/04/21 00:54:17;;;;;;;4.37;3.90;;;;;;;8.58;74.04;102030.63;6161875;28;20242;-78
2023/04/21 00:57:43;;;;;;;12.60;5.90;;;;;;;8.55;74.08;102028.28;6144758;28;20237;-77
2023/04/21 01:01:04;;;;;;;4.77;3.73;;;;;;;8.54;73.67;102023.16;6150436;28;21101;-77
2023/04/21 01:04:25;;;;;;;5.10;4.60;;;;;;;8.51;73.97;102028.66;6158119;28;20623;-77
2023/04/21 01:07:46;;;;;;;5.33;4.10;;;;;;;8.51;73.65;102020.75;6150919;28;20627;-77
2023/04/21 01:11:10;;;;;;;4.17;3.73;;;;;;;8.51;73.92;102029.50;6158078;28;20230;-76
2023/04/21 01:14:35;;;;;;;7.03;5.83;;;;;;;8.48;73.84;102029.75;6150877;28;20226;-77
2023/04/21 01:17:58;;;;;;;9.53;4.80;;;;;;;8.44;73.67;102024.84;6153675;28;20304;-78
2023/04/21 01:21:20;;;;;;;5.43;4.50;;;;;;;8.45;74.58;102016.00;6160623;28;20239;-79
2023/04/21 01:24:45;;;;;;;6.97;3.57;;;;;;;8.44;74.59;102017.78;6145838;28;20226;-78
2023/04/21 01:28:06;;;;;;;11.67;5.67;;;;;;;8.41;74.12;102014.56;6163570;28;20619;-76
2023/04/21 01:31:27;;;;;;;12.30;4.60;;;;;;;8.41;73.94;102025.94;6156330;28;20234;-77
2023/04/21 01:34:48;;;;;;;6.30;4.47;;;;;;;8.37;74.63;102018.41;6147511;28;20323;-77
2023/04/21 01:38:09;;;;;;;6.20;4.63;;;;;;;8.38;74.37;102014.81;6153725;28;20230;-77
2023/04/21 01:41:31;;;;;;;5.97;5.37;;;;;;;8.38;74.38;102013.03;6150877;28;20230;-78
2023/04/21 01:44:53;;;;;;;8.47;5.20;;;;;;;8.42;74.47;102011.81;6149200;28;20241;-78
2023/04/21 01:48:14;;;;;;;5.83;4.20;;;;;;;8.36;74.76;102017.56;6154340;28;20229;-77
2023/04/21 01:51:35;;;;;;;4.60;3.90;;;;;;;8.32;74.20;102010.91;6158479;28;20628;-77
2023/04/21 01:54:55;;;;;;;9.13;4.10;;;;;;;8.37;74.47;102005.25;6140628;28;20282;-77
2023/04/21 01:58:17;;;;;;;8.83;5.67;;;;;;;8.35;74.42;102010.66;6153020;28;20250;-76
2023/04/21 02:01:38;;;;;;;8.07;3.90;;;;;;;8.34;74.86;102009.00;6155854;28;20235;-77
2023/04/21 02:04:59;;;;;;;5.97;4.60;;;;;;;8.32;74.47;102005.66;6139905;28;20230;-79
2023/04/21 02:08:21;;;;;;;4.27;3.87;;;;;;;8.35;74.68;102001.94;6152028;28;20227;-77
2023/04/21 02:11:42;;;;;;;5.77;4.57;;;;;;;8.34;74.15;102003.75;6156579;28;20223;-77
2023/04/21 02:15:06;;;;;;;7.73;5.00;;;;;;;8.32;74.46;102000.41;6167334;28;20239;-78
2023/04/21 02:18:28;;;;;;;5.30;4.77;;;;;;;8.33;74.90;102002.06;6169219;28;20234;-77
2023/04/21 02:21:49;;;;;;;4.07;3.63;;;;;;;8.26;74.65;101992.97;6156756;28;20227;-76
2023/04/21 02:25:12;;;;;;;5.97;5.37;;;;;;;8.26;74.69;101992.97;6155883;28;20230;-78
2023/04/21 02:28:33;;;;;;;4.97;4.57;;;;;;;8.28;74.85;101987.56;6152233;28;20290;-78
2023/04/21 02:31:55;;;;;;;4.73;4.27;;;;;;;8.26;74.78;101992.13;6140724;28;20517;-76
2023/04/21 02:35:16;;;;;;;4.90;4.03;;;;;;;8.26;74.92;101989.50;6157640;28;20685;-76
2023/04/21 02:38:40;;;;;;;6.13;4.70;;;;;;;8.29;74.80;101984.00;6162042;28;20316;-76
2023/04/21 02:42:04;;;;;;;6.30;4.87;;;;;;;8.26;74.77;101995.59;6159833;28;20234;-78
2023/04/21 02:45:25;;;;;;;5.40;4.63;;;;;;;8.24;74.90;101985.19;6146789;28;20237;-77
2023/04/21 02:48:47;;;;;;;8.73;4.20;;;;;;;8.23;74.58;101983.53;6150951;28;20230;-78
2023/04/21 02:52:08;;;;;;;5.43;4.60;;;;;;;8.22;74.75;101981.84;6144121;28;20238;-78
2023/04/21 02:55:29;;;;;;;10.30;5.90;;;;;;;8.25;75.06;101993.91;6153840;28;20246;-79
2023/04/21 02:58:50;;;;;;;6.20;4.17;;;;;;;8.24;74.26;101987.81;6150660;28;20272;-77
2023/04/21 03:02:11;;;;;;;6.07;4.53;;;;;;;8.26;74.88;101984.25;6145051;28;20634;-77
2023/04/21 03:05:34;;;;;;;4.60;4.20;;;;;;;8.25;74.69;101988.66;6156965;28;20234;-77
2023/04/21 03:08:55;;;;;;;9.93;4.90;;;;;;;8.22;74.42;101987.13;6153631;28;20230;-77
2023/04/21 03:12:19;;;;;;;8.57;4.30;;;;;;;8.20;74.63;101985.56;6145251;28;20238;-77
2023/04/21 03:15:40;;;;;;;8.93;3.97;;;;;;;8.22;74.28;101987.13;6155537;28;20230;-78
2023/04/21 03:19:01;;;;;;;3.90;3.60;;;;;;;8.24;74.29;101987.00;6158182;28;20245;-77
2023/04/21 03:22:24;;;;;;;4.90;4.50;;;;;;;8.25;74.29;101983.41;6147689;28;20606;-78
2023/04/21 03:25:45;;;;;;;5.93;5.00;;;;;;;8.24;73.71;101990.47;6150784;28;20231;-76
2023/04/21 03:29:07;;;;;;;6.57;4.53;;;;;;;8.23;74.00;101988.78;6146187;28;20233;-77
2023/04/21 03:32:27;;;;;;;5.33;4.70;;;;;;;8.24;73.79;101985.19;6148000;28;20226;-77
2023/04/21 03:35:48;;;;;;;6.43;4.97;;;;;;;8.20;73.89;101981.13;6130305;28;20242;-77
2023/04/21 03:39:10;;;;;;;6.40;4.83;;;;;;;8.18;73.80;101976.97;6153814;28;20229;-78
2023/04/21 03:42:32;;;;;;;9.03;5.80;;;;;;;8.22;73.64;101973.13;6145651;28;20257;-77
2023/04/21 03:45:53;;;;;;;6.43;4.60;;;;;;;8.22;73.81;101984.47;6134725;28;20230;-77
2023/04/21 03:49:14;;;;;;;15.30;5.63;;;;;;;8.16;73.91;101984.13;6142774;28;20237;-77
2023/04/21 03:52:35;;;;;;;5.97;5.30;;;;;;;8.20;73.33;101982.94;6137951;28;20234;-78
2023/04/21 03:55:57;;;;;;;5.37;4.30;;;;;;;8.23;73.74;101980.06;6166180;28;20227;-77
2023/04/21 03:59:18;;;;;;;7.97;4.80;;;;;;;8.24;73.65;101985.19;6164656;28;20250;-76
2023/04/21 04:02:39;;;;;;;7.10;4.30;;;;;;;8.23;73.26;101987.94;6150431;28;20246;-77
2023/04/21 04:06:01;;;;;;;5.17;4.67;;;;;;;8.23;72.77;101974.81;6163450;28;20242;-77
2023/04/21 04:09:22;;;;;;;4.40;3.87;;;;;;;8.23;73.33;101980.06;6161196;28;20238;-77
2023/04/21 04:12:44;;;;;;;7.70;5.23;;;;;;;8.21;73.43;101976.72;6155408;28;20232;-77
2023/04/21 04:16:06;;;;;;;6.47;4.50;;;;;;;8.24;73.03;101973.84;6152415;28;20260;-77
2023/04/21 04:19:30;;;;;;;4.67;4.13;;;;;;;8.22;73.37;101970.50;6161942;28;20230;-78
2023/04/21 04:22:51;;;;;;;5.37;3.80;;;;;;;8.23;73.01;101970.38;6157239;28;20238;-77
2023/04/21 04:26:12;;;;;;;5.73;4.40;;;;;;;8.21;73.17;101974.09;6162656;28;20858;-76
2023/04/21 04:29:35;;;;;;;5.00;4.43;;;;;;;8.22;72.66;101981.84;6163495;28;21175;-76
2023/04/21 04:32:57;;;;;;;5.00;4.47;;;;;;;8.26;73.30;101979.81;6159047;28;20466;-77
2023/04/21 04:36:18;;;;;;;6.53;4.33;;;;;;;8.30;73.19;101977.78;6142297;28;20234;-77
2023/04/21 04:39:39;;;;;;;7.17;6.43;;;;;;;8.23;72.75;101978.25;6160091;28;20242;-77
2023/04/21 04:43:01;;;;;;;5.40;4.20;;;;;;;8.27;73.11;101981.47;6163855;28;20250;-77
2023/04/21 04:46:27;;;;;;;5.47;4.90;;;;;;;8.33;72.75;101981.03;6165989;28;20253;-76
2023/04/21 04:49:48;;;;;;;7.77;5.33;;;;;;;8.39;72.56;101991.03;6161205;28;20250;-77
2023/04/21 04:53:08;;;;;;;6.60;4.43;;;;;;;9.30;83.80;101992.16;6152261;28;20229;-77
2023/04/21 04:56:30;;;;;;;4.27;3.77;;;;;;;9.33;71.82;101987.44;6161094;28;20226;-76
2023/04/21 04:59:56;;;;;;;3.73;3.43;;;;;;;9.32;72.54;101988.41;6159047;28;20596;-75
2023/04/21 05:03:18;;;;;;;7.87;5.43;;;;;;;9.00;70.53;101980.66;6157654;28;20234;-76
2023/04/21 05:06:39;;;;;;;7.20;4.63;;;;;;;8.89;71.02;101984.19;6155116;28;20338;-77
2023/04/21 05:10:01;;;;;;;8.27;5.03;;;;;;;8.84;70.75;101970.56;6137238;28;20230;-77
2023/04/21 05:13:22;;;;;;;6.47;4.03;;;;;;;8.78;71.25;101984.25;6146096;28;20226;-77
2023/04/21 05:16:46;;;;;;;6.53;4.67;;;;;;;8.80;70.90;101977.06;6159085;28;20317;-77
2023/04/21 05:20:09;;;;;;;4.40;3.97;;;;;;;8.82;70.86;101974.28;6154673;28;20234;-77
2023/04/21 05:23:30;;;;;;;7.77;4.90;;;;;;;8.91;70.64;101981.41;6160492;28;20230;-77
2023/04/21 05:26:51;;;;;;;5.73;3.83;;;;;;;8.99;70.13;101978.16;6159626;28;20730;-77
2023/04/21 05:30:15;;;;;;;6.57;4.10;;;;;;;9.03;69.82;101972.50;6156067;28;20235;-76
2023/04/21 05:33:36;;;;;;;7.20;5.30;;;;;;;9.10;69.41;101964.88;6166652;28;22644;-77
2023/04/21 05:36:58;;;;;;;7.03;4.97;;;;;;;9.17;69.23;101980.03;6149053;28;20234;-75
2023/04/21 05:40:19;;;;;;;8.23;4.77;;;;;;;9.05;69.04;101999.50;6158132;28;20238;-74
2023/04/21 05:43:40;;;;;;;11.50;4.73;;;;;;;9.13;69.16;101981.25;6153428;28;20261;-77
2023/04/21 05:47:01;;;;;;;10.60;4.77;;;;;;;9.33;68.13;101986.63;6146653;28;20257;-70
2023/04/21 05:50:22;;;;;;;7.73;5.17;;;;;;;9.49;68.05;101990.41;6165338;28;20234;-71
2023/04/21 05:53:45;;;;;;;4.70;4.30;;;;;;;9.63;67.41;101986.59;6154125;28;20320;-74
2023/04/21 05:57:07;;;;;;;4.80;4.40;;;;;;;9.73;67.20;101989.25;6146819;28;20234;-72
2023/04/21 06:00:28;;;;;;;6.10;5.00;;;;;;;9.74;67.19;101989.13;6162981;28;20664;-70
2023/04/21 06:03:49;;;;;;;7.20;4.57;;;;;;;9.89;66.51;101989.59;6157770;28;21987;-70
2023/04/21 06:07:12;;;;;;;6.33;4.40;;;;;;;9.93;65.93;101993.63;6147451;28;20992;-70
2023/04/21 06:10:34;;;;;;;5.23;3.40;;;;;;;9.92;66.22;101984.88;6162855;28;20888;-72
2023/04/21 06:13:57;;;;;;;8.10;4.43;;;;;;;10.04;65.47;101976.81;6154960;28;20628;-72
2023/04/21 06:17:18;;;;;;;4.77;4.10;;;;;;;10.23;64.99;101976.88;6147704;28;20242;-71
2023/04/21 06:20:39;;;;;;;8.07;4.43;;;;;;;10.33;64.49;101979.53;6144590;28;20314;-74
2023/04/21 06:24:00;;;;;;;5.77;4.77;;;;;;;10.32;64.64;101983.13;6143367;28;20258;-73
2023/04/21 06:27:22;;;;;;;7.70;5.07;;;;;;;10.41;64.21;101966.44;6133575;28;20310;-72
2023/04/21 06:30:44;;;;;;;8.27;4.50;;;;;;;10.50;64.29;101968.25;6149241;28;20314;-72
2023/04/21 06:34:05;;;;;;;5.20;4.70;;;;;;;10.59;63.60;101970.91;6143947;28;20238;-71
2023/04/21 06:37:26;;;;;;;4.57;4.17;;;;;;;10.62;63.51;101973.22;6129421;28;20670;-73
2023/04/21 06:40:48;;;;;;;4.83;4.17;;;;;;;10.75;62.87;101972.13;6141184;28;20794;-71
2023/04/21 06:44:12;;;;;;;10.13;4.97;;;;;;;10.67;62.63;101972.81;6135765;28;20257;-72
2023/04/21 06:47:36;;;;;;;6.47;3.90;;;;;;;10.84;62.17;101972.09;6149410;28;20709;-72
2023/04/21 06:50:57;;;;;;;5.93;5.00;;;;;;;10.91;62.17;101969.72;6140331;28;20243;-72
2023/04/21 06:54:18;;;;;;;4.23;3.67;;;;;;;10.99;61.77;101964.56;6140599;28;20234;-73
2023/04/21 06:57:39;;;;;;;6.13;4.80;;;;;;;11.09;61.79;101962.69;6141558;28;20470;-72
2023/04/21 07:01:05;;;;;;;5.33;4.63;;;;;;;11.18;61.12;101963.66;6145657;28;20226;-73
2023/04/21 07:04:28;;;;;;;5.87;4.67;;;;;;;11.15;60.74;101961.28;6150227;28;20246;-71
2023/04/21 07:07:49;;;;;;;6.73;3.90;;;;;;;11.19;61.18;101952.94;6159934;28;21684;-74
2023/04/21 07:11:10;;;;;;;5.83;5.27;;;;;;;11.24;60.49;101955.97;6158949;28;20301;-74
2023/04/21 07:14:31;;;;;;;6.30;4.00;;;;;;;11.28;60.67;101957.38;6162569;28;20311;-72
2023/04/21 07:17:57;;;;;;;8.03;4.53;;;;;;;11.40;60.32;101949.22;6161887;28;20234;-72
2023/04/21 07:21:18;;;;;;;10.33;4.70;;;;;;;11.63;60.02;101948.69;6159136;28;20254;-71
2023/04/21 07:24:41;;;;;;;5.27;4.67;;;;;;;11.74;59.51;101947.66;6157803;28;20238;-76
2023/04/21 07:28:03;;;;;;;4.10;3.73;;;;;;;11.85;59.59;101943.97;6143972;28;20234;-72
2023/04/21 07:31:24;;;;;;;8.90;5.57;;;;;;;11.99;58.85;101944.28;6164676;28;20249;-73
2023/04/21 07:34:47;;;;;;;5.47;4.20;;;;;;;12.23;58.25;101945.50;6158505;28;20309;-72
2023/04/21 07:38:08;;;;;;;10.50;5.43;;;;;;;12.35;58.46;101941.63;6156062;28;20231;-75
2023/04/21 07:41:29;;;;;;;4.73;4.20;;;;;;;12.46;57.76;101943.19;6140454;28;20234;-72
2023/04/21 07:44:49;;;;;;;8.80;4.70;;;;;;;12.54;57.81;101943.28;6149417;28;20234;-73
2023/04/21 07:48:11;;;;;;;4.60;4.17;;;;;;;12.71;56.97;101933.63;6152241;28;20227;-72
2023/04/21 07:51:33;;;;;;;6.77;4.53;;;;;;;12.76;56.78;101926.03;6155089;28;20507;-71
2023/04/21 07:54:54;;;;;;;8.37;4.57;;;;;;;12.87;56.94;101934.56;6154705;28;20238;-72
2023/04/21 07:58:15;;;;;;;6.37;4.70;;;;;;;13.00;56.33;101919.06;6159422;28;20230;-74
2023/04/21 08:01:36;;;;;;;6.70;4.73;;;;;;;13.05;56.39;101925.72;6157594;28;20588;-74
2023/04/21 08:04:57;;;;;;;6.27;4.47;;;;;;;13.19;55.51;101923.31;6139325;28;20235;-72
2023/04/21 08:08:20;;;;;;;5.53;4.77;;;;;;;13.40;55.56;101920.25;6154279;28;20230;-71
2023/04/21 08:11:41;;;;;;;7.47;5.30;;;;;;;13.42;55.04;101928.06;6153977;28;20322;-72
2023/04/21 08:15:06;;;;;;;5.93;5.33;;;;;;;13.40;54.68;101919.41;6159771;28;20230;-70
2023/04/21 08:18:27;;;;;;;6.90;5.27;;;;;;;13.57;53.93;101921.13;6160972;28;20266;-74
2023/04/21 08:21:47;;;;;;;7.07;3.90;;;;;;;13.71;54.17;101928.47;6143883;28;20234;-73
2023/04/21 08:25:11;;;;;;;6.53;4.47;;;;;;;13.79;53.86;101920.50;6142165;28;20243;-71
2023/04/21 08:28:32;;;;;;;4.70;4.30;;;;;;;13.82;53.62;101916.72;6160138;28;20235;-72
2023/04/21 08:31:53;;;;;;;4.60;4.20;;;;;;;13.77;53.46;101914.56;6163212;28;20254;-74
2023/04/21 08:35:14;;;;;;;5.90;4.77;;;;;;;14.00;53.57;101904.97;6154178;28;20233;-74
2023/04/21 08:38:35;;;;;;;12.80;4.93;;;;;;;14.17;53.27;101908.47;6162033;28;20238;-75
2023/04/21 08:41:59;;;;;;;5.23;4.73;;;;;;;14.42;53.41;101906.66;6143837;28;20233;-73
2023/04/21 08:45:20;;;;;;;5.43;4.37;;;;;;;14.59;52.30;101910.13;6169838;28;20567;-73
2023/04/21 08:48:41;;;;;;;7.50;4.07;;;;;;;14.62;51.52;101907.97;6164624;28;20226;-73
2023/04/21 08:52:02;;;;;;;4.20;3.90;;;;;;;14.79;50.78;101902.59;6162945;28;20234;-75
2023/04/21 08:55:26;;;;;;;7.07;5.07;;;;;;;14.88;50.89;101891.78;6162365;28;20338;-74
2023/04/21 08:58:49;;;;;;;8.17;5.37;;;;;;;14.96;50.84;101897.06;6165146;28;20242;-74
2023/04/21 09:02:11;;;;;;;6.03;5.27;;;;;;;15.06;49.75;101894.22;6159707;28;20235;-74
2023/04/21 09:05:34;;;;;;;4.63;3.83;;;;;;;15.15;50.35;101890.50;6154210;28;20226;-71
2023/04/21 09:08:55;;;;;;;6.93;4.60;;;;;;;15.23;49.88;101892.31;6161262;28;20493;-71
2023/04/21 09:12:16;;;;;;;7.23;4.67;;;;;;;15.34;49.16;101895.44;6159266;28;20242;-72
2023/04/21 09:15:51;;;;;;;6.77;3.83;;;;;;;15.40;48.72;101891.22;6158596;28;20613;-72
2023/04/21 09:19:14;;;;;;;5.77;4.10;;;;;;;15.56;49.29;101887.69;6160307;28;20231;-72
2023/04/21 09:22:39;;;;;;;4.87;4.47;;;;;;;15.71;48.61;101893.91;6155881;28;20502;-71
2023/04/21 09:26:03;;;;;;;6.00;4.43;;;;;;;15.80;47.94;101886.69;6155551;28;20254;-72
2023/04/21 09:29:24;;;;;;;5.40;4.80;;;;;;;16.02;48.33;101881.38;6157962;28;20230;-74
2023/04/21 09:32:47;;;;;;;7.27;4.60;;;;;;;16.10;48.62;101880.47;6152562;28;20280;-70
2023/04/21 09:36:08;;;;;;;4.30;3.90;;;;;;;16.13;46.38;101877.44;6154338;28;20231;-74
2023/04/21 09:39:30;;;;;;;4.93;4.03;;;;;;;16.14;46.20;101871.09;6156605;28;20243;-71
2023/04/21 09:42:51;;;;;;;6.67;4.13;;;;;;;16.30;46.39;101868.28;6154800;28;20254;-71
2023/04/21 09:46:13;;;;;;;4.83;4.47;;;;;;;16.44;45.65;101874.66;6167456;28;20230;-72
2023/04/21 09:49:43;;;;;;;6.40;5.43;;;;;;;16.46;45.91;101867.31;6162014;28;20623;-72
2023/04/21 09:53:07;;;;;;;5.90;4.43;;;;;;;16.46;44.35;101859.31;6162798;28;20234;-69
2023/04/21 09:56:32;;;;;;;6.03;5.07;;;;;;;16.63;44.58;101844.84;6156369;28;20227;-71
2023/04/21 09:59:56;;;;;;;6.00;4.23;;;;;;;16.82;44.63;101851.44;6159767;28;20230;-72
2023/04/21 10:03:19;;;;;;;4.30;3.90;;;;;;;16.78;43.53;101844.81;6163072;28;20239;-74
2023/04/21 10:06:42;;;;;;;5.77;3.93;;;;;;;17.13;44.30;101843.25;6161680;28;20700;-71
2023/04/21 10:10:11;;;;;;;6.97;4.43;;;;;;;17.22;43.76;101839.44;6155878;28;20231;-73
2023/04/21 10:13:33;;;;;;;3.90;3.53;;;;;;;17.33;43.45;101841.63;6164513;28;20248;-76
2023/04/21 10:16:57;;;;;;;5.80;4.67;;;;;;;17.32;44.18;101837.31;6160027;28;20242;-74
2023/04/21 10:20:18;;;;;;;5.00;4.13;;;;;;;17.52;43.36;101832.16;6160720;28;20242;-74
2023/04/21 10:23:45;;;;;;;5.63;4.40;;;;;;;17.76;43.08;101820.31;6157261;28;21094;-73
2023/04/21 10:27:11;;;;;;;6.10;4.13;;;;;;;17.96;41.93;101823.97;6155176;28;20230;-69
2023/04/21 10:30:33;;;;;;;8.33;5.00;;;;;;;18.20;43.19;101814.72;6175847;28;20219;-73
2023/04/21 10:34:20;;;;;;;4.10;3.70;;;;;;;18.41;42.39;101811.97;6159076;28;20221;-70
2023/04/21 10:37:42;;;;;;;5.37;4.03;;;;;;;18.44;41.55;101810.75;6154350;28;21007;-72
2023/04/21 10:41:28;;;;;;;7.17;4.70;;;;;;;18.47;40.89;101810.38;6163151;28;20234;-71
2023/04/21 10:45:11;;;;;;;5.10;4.43;;;;;;;18.77;40.61;101798.41;6156209;28;20231;-76
2023/04/21 10:48:36;;;;;;;6.50;4.37;;;;;;;18.98;40.17;101791.28;6149728;28;20233;-72
2023/04/21 10:52:09;;;;;;;5.25;4.28;;;;;;;19.13;39.88;101786.59;6147777;28;20246;-74
2023/04/21 10:55:30;;;;;;;4.32;3.38;;;;;;;19.16;38.52;101794.25;6150372;28;20891;-71
2023/04/21 10:58:53;;;;;;;4.18;3.78;;;;;;;19.38;38.18;101777.00;6151753;28;20261;-73
2023/04/21 11:02:15;;;;;;;6.80;4.88;;;;;;;19.48;37.11;101777.41;6139827;28;20239;-72
2023/04/21 11:05:39;;;;;;;5.10;4.60;;;;;;;19.83;37.91;101774.56;6160786;28;20609;-74
2023/04/21 11:09:02;;;;;;;4.93;3.35;;;;;;;19.93;37.21;101774.97;6149955;28;20229;-74
2023/04/21 11:12:27;;;;;;;4.38;3.50;;;;;;;19.80;37.25;101770.44;6139065;28;20246;-75
2023/04/21 11:16:03;;;;;;;3.67;3.35;;;;;;;20.05;37.56;101759.91;6147873;28;20246;-72
2023/04/21 11:19:24;;;;;;;5.38;4.45;;;;;;;20.41;35.49;101756.75;6169385;28;20242;-73
2023/04/21 11:22:45;;;;;;;7.00;3.80;;;;;;;20.74;35.71;101743.22;6152386;28;20236;-72
2023/04/21 11:26:06;;;;;;;4.78;3.95;;;;;;;20.76;34.75;101748.38;6157314;28;20238;-75
2023/04/21 11:29:28;;;;;;;15.80;3.95;;;;;;;20.96;34.40;101734.88;6163306;28;20656;-75
2023/04/21 11:32:55;;;;;;;3.60;3.15;;;;;;;20.95;32.67;101728.66;6152520;28;20658;-75
2023/04/21 11:36:16;;;;;;;3.35;2.97;;;;;;;20.98;32.07;101738.97;6163459;28;20242;-76
2023/04/21 11:39:40;;;;;;;4.53;3.65;;;;;;;20.98;31.86;101732.78;6166554;28;20329;-68
2023/04/21 11:43:03;;;;;;;3.65;3.35;;;;;;;21.08;30.56;101719.69;6149224;28;20898;-70
2023/04/21 11:46:25;;;;;;;4.43;4.03;;;;;;;21.59;30.62;101718.75;6163705;28;20234;-69
2023/04/21 11:49:50;;;;;;;4.85;3.55;;;;;;;22.41;27.79;101712.94;6144592;28;20230;-69
2023/04/21 11:53:11;;;;;;;5.25;3.05;;;;;;;25.97;24.11;101699.84;6166168;28;20796;-69
2023/04/21 11:56:35;;;;;;;7.25;2.92;;;;;;;29.37;19.62;101691.28;6153192;28;20234;-70
2023/04/21 11:59:59;;;;;;;4.18;3.42;;;;;;;29.86;17.88;101690.66;6164164;28;20246;-71
2023/04/21 12:03:19;;;;;;;5.40;4.28;;;;;;;30.64;16.95;101692.84;6157662;28;20229;-71
2023/04/21 12:06:42;;;;;;;5.65;4.05;;;;;;;32.16;16.06;101675.03;6156791;28;20241;-72
2023/04/21 12:10:10;;;;;;;4.55;3.78;;;;;;;30.71;16.22;101688.69;6160058;28;20308;-71
2023/04/21 12:13:31;;;;;;;5.13;2.88;;;;;;;30.89;15.78;101666.22;6156911;28;20517;-72
2023/04/21 12:16:54;;;;;;;4.95;3.78;;;;;;;31.64;15.55;101665.78;6157008;28;20233;-71
2023/04/21 12:20:16;;;;;;;4.05;3.13;;;;;;;32.29;14.73;101663.44;6150920;28;20348;-71
2023/04/21 12:23:38;;;;;;;3.55;2.97;;;;;;;31.88;15.44;101663.91;6158325;28;20233;-71
2023/04/21 12:26:59;;;;;;;6.07;3.75;;;;;;;30.57;15.83;101674.88;6153989;28;20235;-73
2023/04/21 12:30:21;;;;;;;4.03;3.53;;;;;;;30.83;15.65;101656.44;6163444;28;20617;-72
2023/04/21 12:33:42;;;;;;;4.47;3.05;;;;;;;31.51;14.48;101648.19;6165284;28;20268;-72
2023/04/21 12:37:03;;;;;;;7.75;6.05;;;;;;;31.14;13.42;101645.31;6143159;28;20834;-70
2023/04/21 12:40:26;;;;;;;4.47;4.07;;;;;;;31.82;12.15;101656.09;6152965;28;20675;-71
2023/04/21 12:43:47;;;;;;;4.22;3.85;;;;;;;32.02;13.08;101647.63;6146829;28;20234;-71
2023/04/21 12:47:09;;;;;;;5.20;3.15;;;;;;;30.85;13.47;101629.69;6121999;28;20227;-71
2023/04/21 12:50:30;;;;;;;3.45;3.15;;;;;;;30.95;14.36;101651.41;6136823;28;20266;-71
2023/04/21 12:53:50;;;;;;;12.10;4.47;;;;;;;29.50;15.22;101636.34;6113668;28;20653;-71
2023/04/21 12:57:14;;;;;;;4.60;3.65;;;;;;;28.47;16.09;101617.53;6094425;28;20242;-70
2023/04/21 13:00:35;;;;;;;4.15;3.67;;;;;;;30.27;13.83;101621.34;6104411;28;20230;-70
2023/04/21 13:03:56;;;;;;;3.25;2.95;;;;;;;29.60;14.20;101613.72;6097124;28;20230;-70
2023/04/21 13:07:20;;;;;;;4.20;3.80;;;;;;;29.51;13.59;101627.09;6096492;28;20625;-75
2023/04/21 13:10:44;;;;;;;4.97;3.20;;;;;;;30.89;13.81;101613.59;6116423;28;22868;-75
2023/04/21 13:14:06;;;;;;;4.60;4.13;;;;;;;31.55;12.82;101607.50;6128235;28;20636;-75
2023/04/21 13:17:27;;;;;;;3.47;3.08;;;;;;;31.42;12.90;101599.97;6111269;28;20233;-74
2023/04/21 13:20:48;;;;;;;6.80;4.60;;;;;;;30.27;14.22;101599.53;6153615;28;20230;-74
2023/04/21 13:24:09;;;;;;;5.43;4.38;;;;;;;32.83;13.26;101602.72;6164890;28;20322;-75
2023/04/21 13:27:32;;;;;;;9.43;3.65;;;;;;;28.45;15.78;101605.34;6156693;28;20234;-75
2023/04/21 13:30:54;;;;;;;4.28;3.90;;;;;;;27.05;17.66;101591.63;6156984;28;20322;-76
2023/04/21 13:34:15;;;;;;;6.22;5.63;;;;;;;27.05;17.91;101607.88;6159065;28;20264;-74
2023/04/21 13:37:36;;;;;;;4.18;3.78;;;;;;;26.79;18.29;101598.69;6133818;28;20238;-74
2023/04/21 13:40:57;;;;;;;5.47;4.50;;;;;;;26.91;17.68;101578.47;6130252;28;20275;-73
2023/04/21 13:44:20;;;;;;;7.97;5.28;;;;;;;24.74;20.83;101581.94;6124807;28;20238;-73
2023/04/21 13:47:43;;;;;;;4.20;3.78;;;;;;;26.92;17.80;101576.56;6108873;28;20257;-74
2023/04/21 13:51:04;;;;;;;4.53;4.05;;;;;;;28.10;17.53;101563.41;6107761;28;20234;-74
2023/04/21 13:54:25;;;;;;;5.05;4.43;;;;;;;29.84;15.58;101545.84;6107149;28;21186;-74
2023/04/21 13:57:46;;;;;;;5.93;5.35;;;;;;;26.56;19.78;101559.22;6097452;28;21696;-73
2023/04/21 14:01:07;;;;;;;5.78;3.38;;;;;;;24.68;21.62;101569.41;6114955;28;20231;-74
2023/04/21 14:04:29;;;;;;;3.97;3.60;;;;;;;23.62;23.07;101560.09;6113198;28;20226;-74
2023/04/21 14:07:49;;;;;;;4.05;3.72;;;;;;;22.32;24.43;101555.59;6110382;28;20678;-75
2023/04/21 14:11:11;;;;;;;5.28;4.35;;;;;;;22.56;23.91;101553.81;6134313;28;20628;-73
2023/04/21 14:14:32;;;;;;;3.40;3.20;;;;;;;23.17;23.38;101541.81;6137156;28;20235;-73
2023/04/21 14:17:52;;;;;;;3.97;3.67;;;;;;;23.84;22.37;101537.63;6140461;28;20494;-73
2023/04/21 14:21:15;;;;;;;6.10;4.43;;;;;;;23.53;23.28;101516.50;6161703;28;20234;-75
2023/04/21 14:24:35;;;;;;;5.65;4.20;;;;;;;23.28;23.14;101524.81;6159776;28;20502;-74
2023/04/21 14:27:56;;;;;;;7.15;3.92;;;;;;;22.78;24.38;101524.50;6136299;28;20264;-73
2023/04/21 14:31:17;;;;;;;5.55;4.28;;;;;;;23.21;24.14;101517.94;6166872;28;20317;-74
2023/04/21 14:34:38;;;;;;;4.43;4.05;;;;;;;23.33;23.57;101522.25;6163834;28;20708;-74
2023/04/21 14:38:00;;;;;;;6.43;4.38;;;;;;;23.30;24.25;101516.50;6139158;28;20350;-73
2023/04/21 14:41:21;;;;;;;4.53;4.20;;;;;;;22.78;24.26;101502.97;6156157;28;20251;-76
2023/04/21 14:44:41;;;;;;;5.70;5.03;;;;;;;22.94;24.24;101504.13;6145392;28;20581;-75
2023/04/21 14:48:03;;;;;;;5.82;4.55;;;;;;;22.96;25.18;101500.16;6168524;28;20320;-74
2023/04/21 14:51:24;;;;;;;4.82;4.53;;;;;;;23.46;24.44;101483.47;6152302;28;20250;-74
2023/04/21 14:54:46;;;;;;;5.38;4.88;;;;;;;23.59;24.95;101494.00;6164255;28;20321;-73
2023/04/21 14:58:08;;;;;;;4.78;4.35;;;;;;;23.23;24.76;101494.28;6158527;28;20410;-74
2023/04/21 15:01:30;;;;;;;6.68;4.97;;;;;;;22.57;25.78;101493.53;6159462;28;20227;-74
2023/04/21 15:04:51;;;;;;;4.93;4.10;;;;;;;22.78;25.71;101476.88;6160866;28;20321;-73
2023/04/21 15:08:16;;;;;;;5.10;4.32;;;;;;;23.09;24.56;101472.16;6152586;28;20292;-75
2023/04/21 15:11:39;;;;;;;4.70;3.88;;;;;;;23.29;24.76;101466.38;6157005;28;20322;-75
2023/04/21 15:14:59;;;;;;;7.32;4.55;;;;;;;22.43;25.25;101463.31;6146105;28;20258;-75
2023/04/21 15:18:21;;;;;;;6.25;5.65;;;;;;;22.32;26.19;101457.94;6153923;28;20333;-75
2023/04/21 15:21:42;;;;;;;5.80;5.25;;;;;;;22.10;26.14;101454.97;6152732;28;20329;-74
2023/04/21 15:25:03;;;;;;;4.18;3.78;;;;;;;22.34;26.19;101443.22;6154326;28;20226;-75
2023/04/21 15:28:26;;;;;;;6.72;4.10;;;;;;;22.72;25.39;101442.75;6157938;28;20257;-75
2023/04/21 15:31:47;;;;;;;4.85;4.43;;;;;;;22.80;25.29;101450.53;6159523;28;20247;-75
2023/04/21 15:35:09;;;;;;;4.30;3.90;;;;;;;22.40;25.91;101438.75;6159419;28;20250;-75
2023/04/21 15:38:29;;;;;;;5.95;4.28;;;;;;;22.52;25.91;101434.22;6144930;28;20241;-73
2023/04/21 15:41:52;;;;;;;7.68;5.97;;;;;;;22.99;25.75;101429.66;6153225;28;20238;-75
2023/04/21 15:45:16;;;;;;;4.50;4.00;;;;;;;22.73;25.69;101427.44;6151368;28;20238;-74